sensor_id;sensor_type;location;lat;lon;timestamp;pressure;altitude;pressure_sealevel;temperature;humidity
43741;BME280;29352;48.708;9.290;2023-05-09T00:00:48;98124.16;;;6.25;97.48
43741;BME280;29352;48.708;9.290;2023-05-09T00:03:13;98125.50;;;6.21;98.28
43741;BME280;29352;48.708;9.290;2023-05-09T00:05:39;98124.13;;;5.95;98.85
43741;BME280;29352;48.708;9.290;2023-05-09T00:08:05;98115.72;;;6.06;99.22
43741;BME280;29352;48.708;9.290;2023-05-09T00:10:31;98125.09;;;5.79;99.09
43741;BME280;29352;48.708;9.290;2023-05-09T00:12:57;98120.78;;;5.63;100.00
43741;BME280;29352;48.708;9.290;2023-05-09T00:15:23;98119.38;;;5.53;100.00
43741;BME280;29352;48.708;9.290;2023-05-09T00:17:50;98118.41;;;5.68;100.00
43741;BME280;29352;48.708;9.290;2023-05-09T00:20:17;98113.13;;;5.68;99.89
43741;BME280;29352;48.708;9.290;2023-05-09T00:22:43;98111.13;;;5.48;100.00
43741;BME280;29352;48.708;9.290;2023-05-09T00:25:10;98104.00;;;5.48;100.00
43741;BME280;29352;48.708;9.290;2023-05-09T00:27:36;98103.53;;;5.44;100.00
43741;BME280;29352;48.708;9.290;2023-05-09T00:30:03;98106.09;;;5.38;100.00
43741;BME280;29352;48.708;9.290;2023-05-09T00:32:31;98098.88;;;5.32;99.74
43741;BME280;29352;48.708;9.290;2023-05-09T00:34:57;98100.59;;;5.62;100.00
43741;BME280;29352;48.708;9.290;2023-05-09T00:37:22;98097.75;;;5.87;99.51
43741;BME280;29352;48.708;9.290;2023-05-09T00:39:48;98088.25;;;6.22;97.15
43741;BME280;29352;48.708;9.290;2023-05-09T00:42:13;98086.75;;;6.34;95.50
43741;BME280;29352;48.708;9.290;2023-05-09T00:44:39;98079.69;;;6.41;94.44
43741;BME280;29352;48.708;9.290;2023-05-09T00:47:05;98084.75;;;5.92;96.33
43741;BME280;29352;48.708;9.290;2023-05-09T00:49:32;98081.63;;;5.36;99.42
43741;BME280;29352;48.708;9.290;2023-05-09T00:51:58;98083.00;;;5.09;100.00
43741;BME280;29352;48.708;9.290;2023-05-09T00:54:25;98085.00;;;5.07;100.00
43741;BME280;29352;48.708;9.290;2023-05-09T00:56:50;98076.88;;;5.08;100.00
43741;BME280;29352;48.708;9.290;2023-05-09T00:59:18;98076.03;;;5.31;99.46
43741;BME280;29352;48.708;9.290;2023-05-09T01:01:45;98071.53;;;5.54;98.87
43741;BME280;29352;48.708;9.290;2023-05-09T01:04:12;98071.38;;;5.18;98.06
43741;BME280;29352;48.708;9.290;2023-05-09T01:07:13;98063.22;;;5.19;99.24
43741;BME280;29352;48.708;9.290;2023-05-09T01:32:06;98065.06;;;4.96;98.27
43741;BME280;29352;48.708;9.290;2023-05-09T01:34:37;98064.47;;;4.63;98.74
43741;BME280;29352;48.708;9.290;2023-05-09T01:37:07;98068.59;;;4.65;99.66
43741;BME280;29352;48.708;9.290;2023-05-09T01:39:39;98068.06;;;4.70;99.88
43741;BME280;29352;48.708;9.290;2023-05-09T01:42:08;98069.41;;;4.66;100.00
43741;BME280;29352;48.708;9.290;2023-05-09T01:44:42;98063.59;;;4.70;100.00
43741;BME280;29352;48.708;9.290;2023-05-09T01:47:10;98067.69;;;4.96;100.00
43741;BME280;29352;48.708;9.290;2023-05-09T01:49:39;98055.31;;;5.34;97.53
43741;BME280;29352;48.708;9.290;2023-05-09T01:52:10;98054.25;;;5.06;99.05
43741;BME280;29352;48.708;9.290;2023-05-09T01:54:39;98053.38;;;4.90;100.00
43741;BME280;29352;48.708;9.290;2023-05-09T01:57:10;98050.72;;;4.67;100.00
43741;BME280;29352;48.708;9.290;2023-05-09T01:59:41;98047.91;;;4.30;100.00
43741;BME280;29352;48.708;9.290;2023-05-09T02:02:09;98048.03;;;4.36;100.00
43741;BME280;29352;48.708;9.290;2023-05-09T02:04:37;98039.53;;;4.57;100.00
43741;BME280;29352;48.708;9.290;2023-05-09T02:07:07;98041.78;;;4.68;100.00
43741;BME280;29352;48.708;9.290;2023-05-09T02:09:32;98049.66;;;4.45;100.00
43741;BME280;29352;48.708;9.290;2023-05-09T02:11:58;98047.31;;;4.82;100.00
43741;BME280;29352;48.708;9.290;2023-05-09T02:14:24;98043.63;;;5.14;98.98
43741;BME280;29352;48.708;9.290;2023-05-09T02:16:50;98040.97;;;5.14;98.53
43741;BME280;29352;48.708;9.290;2023-05-09T02:19:15;98037.88;;;5.10;97.93
43741;BME280;29352;48.708;9.290;2023-05-09T02:21:42;98048.84;;;5.22;97.30
43741;BME280;29352;48.708;9.290;2023-05-09T02:24:08;98050.44;;;4.62;99.91
43741;BME280;29352;48.708;9.290;2023-05-09T02:26:35;98052.56;;;4.19;100.00
43741;BME280;29352;48.708;9.290;2023-05-09T02:29:02;98059.38;;;4.14;100.00
43741;BME280;29352;48.708;9.290;2023-05-09T02:31:33;98055.09;;;4.52;100.00
43741;BME280;29352;48.708;9.290;2023-05-09T02:34:01;98061.44;;;3.87;100.00
43741;BME280;29352;48.708;9.290;2023-05-09T02:36:30;98067.03;;;3.92;100.00
43741;BME280;29352;48.708;9.290;2023-05-09T02:38:57;98054.84;;;4.31;100.00
43741;BME280;29352;48.708;9.290;2023-05-09T02:41:25;98048.38;;;4.33;100.00
43741;BME280;29352;48.708;9.290;2023-05-09T02:43:54;98049.19;;;4.42;98.65
43741;BME280;29352;48.708;9.290;2023-05-09T02:46:19;98045.13;;;4.23;100.00
43741;BME280;29352;48.708;9.290;2023-05-09T02:48:45;98045.34;;;4.13;100.00
43741;BME280;29352;48.708;9.290;2023-05-09T02:51:10;98037.31;;;4.38;99.29
43741;BME280;29352;48.708;9.290;2023-05-09T02:53:36;98033.47;;;4.09;100.00
43741;BME280;29352;48.708;9.290;2023-05-09T02:56:01;98032.09;;;4.21;100.00
43741;BME280;29352;48.708;9.290;2023-05-09T02:58:28;98033.38;;;4.65;100.00
43741;BME280;29352;48.708;9.290;2023-05-09T03:00:53;98028.19;;;4.71;99.78
43741;BME280;29352;48.708;9.290;2023-05-09T03:03:18;98021.88;;;4.81;100.00
43741;BME280;29352;48.708;9.290;2023-05-09T03:05:46;98019.34;;;5.10;98.07
43741;BME280;29352;48.708;9.290;2023-05-09T03:08:11;98007.75;;;5.11;97.07
43741;BME280;29352;48.708;9.290;2023-05-09T03:10:36;98014.81;;;4.96;97.89
43741;BME280;29352;48.708;9.290;2023-05-09T03:13:02;98016.84;;;5.09;96.76
43741;BME280;29352;48.708;9.290;2023-05-09T03:15:27;98005.88;;;4.97;97.10
43741;BME280;29352;48.708;9.290;2023-05-09T03:17:53;98007.72;;;4.73;98.74
43741;BME280;29352;48.708;9.290;2023-05-09T03:20:18;98008.94;;;4.32;100.00
43741;BME280;29352;48.708;9.290;2023-05-09T03:22:44;98008.75;;;4.33;100.00
43741;BME280;29352;48.708;9.290;2023-05-09T03:25:09;98006.03;;;4.49;100.00
43741;BME280;29352;48.708;9.290;2023-05-09T03:27:35;98013.06;;;4.34;100.00
43741;BME280;29352;48.708;9.290;2023-05-09T03:30:00;98008.75;;;4.33;100.00
43741;BME280;29352;48.708;9.290;2023-05-09T03:32:26;98010.97;;;4.21;100.00
43741;BME280;29352;48.708;9.290;2023-05-09T03:34:51;98009.09;;;4.30;100.00
43741;BME280;29352;48.708;9.290;2023-05-09T03:37:17;97993.97;;;4.78;99.50
43741;BME280;29352;48.708;9.290;2023-05-09T03:39:42;97996.00;;;4.37;98.98
43741;BME280;29352;48.708;9.290;2023-05-09T03:42:07;98000.06;;;4.24;100.00
43741;BME280;29352;48.708;9.290;2023-05-09T03:44:33;97990.19;;;4.18;100.00
43741;BME280;29352;48.708;9.290;2023-05-09T03:46:58;97993.28;;;3.91;100.00
43741;BME280;29352;48.708;9.290;2023-05-09T03:49:24;97994.56;;;3.95;100.00
43741;BME280;29352;48.708;9.290;2023-05-09T03:51:49;97989.00;;;3.82;100.00
43741;BME280;29352;48.708;9.290;2023-05-09T03:54:15;97991.59;;;3.42;100.00
43741;BME280;29352;48.708;9.290;2023-05-09T03:56:40;97988.38;;;3.79;100.00
43741;BME280;29352;48.708;9.290;2023-05-09T03:59:05;97989.06;;;3.73;100.00
43741;BME280;29352;48.708;9.290;2023-05-09T04:01:31;97996.97;;;3.73;100.00
43741;BME280;29352;48.708;9.290;2023-05-09T04:03:57;97996.31;;;3.71;100.00
43741;BME280;29352;48.708;9.290;2023-05-09T04:06:22;98000.34;;;3.51;100.00
43741;BME280;29352;48.708;9.290;2023-05-09T04:08:48;98006.63;;;3.42;100.00
43741;BME280;29352;48.708;9.290;2023-05-09T04:11:13;97999.31;;;3.60;100.00
43741;BME280;29352;48.708;9.290;2023-05-09T04:13:39;98000.69;;;4.26;100.00
43741;BME280;29352;48.708;9.290;2023-05-09T04:16:04;97996.16;;;4.12;100.00
43741;BME280;29352;48.708;9.290;2023-05-09T04:18:30;97996.63;;;4.16;100.00
43741;BME280;29352;48.708;9.290;2023-05-09T04:20:55;98001.09;;;4.15;100.00
43741;BME280;29352;48.708;9.290;2023-05-09T04:23:21;98001.16;;;4.30;99.62
43741;BME280;29352;48.708;9.290;2023-05-09T04:25:46;97998.84;;;4.35;100.00
43741;BME280;29352;48.708;9.290;2023-05-09T04:28:15;97994.03;;;4.93;97.23
43741;BME280;29352;48.708;9.290;2023-05-09T04:30:40;97995.28;;;4.51;98.08
43741;BME280;29352;48.708;9.290;2023-05-09T04:33:06;97989.31;;;4.80;98.27
43741;BME280;29352;48.708;9.290;2023-05-09T04:35:31;98002.53;;;4.80;98.57
43741;BME280;29352;48.708;9.290;2023-05-09T04:37:57;98002.97;;;4.69;98.66
43741;BME280;29352;48.708;9.290;2023-05-09T04:40:22;97993.38;;;5.29;95.81
43741;BME280;29352;48.708;9.290;2023-05-09T04:42:47;97998.09;;;6.01;93.81
43741;BME280;29352;48.708;9.290;2023-05-09T04:45:13;97996.63;;;5.98;91.63
43741;BME280;29352;48.708;9.290;2023-05-09T04:47:39;97996.41;;;5.55;93.83
43741;BME280;29352;48.708;9.290;2023-05-09T04:50:05;98001.31;;;5.58;94.06
43741;BME280;29352;48.708;9.290;2023-05-09T04:52:32;97992.31;;;5.53;93.00
43741;BME280;29352;48.708;9.290;2023-05-09T04:54:57;98000.00;;;5.77;92.19
43741;BME280;29352;48.708;9.290;2023-05-09T04:57:22;98000.91;;;5.99;91.96
43741;BME280;29352;48.708;9.290;2023-05-09T04:59:48;97998.19;;;5.25;95.85
43741;BME280;29352;48.708;9.290;2023-05-09T05:02:14;97997.63;;;5.97;94.16
43741;BME280;29352;48.708;9.290;2023-05-09T05:04:39;98004.84;;;5.74;94.29
43741;BME280;29352;48.708;9.290;2023-05-09T05:07:05;97992.69;;;5.94;92.41
43741;BME280;29352;48.708;9.290;2023-05-09T05:09:30;97998.63;;;6.47;89.88
43741;BME280;29352;48.708;9.290;2023-05-09T05:11:56;97991.38;;;6.56;88.85
43741;BME280;29352;48.708;9.290;2023-05-09T05:14:21;97991.59;;;5.88;92.86
43741;BME280;29352;48.708;9.290;2023-05-09T05:16:46;97997.09;;;5.34;94.55
43741;BME280;29352;48.708;9.290;2023-05-09T05:19:12;98001.25;;;5.96;94.09
43741;BME280;29352;48.708;9.290;2023-05-09T05:21:37;97986.72;;;6.79;89.75
43741;BME280;29352;48.708;9.290;2023-05-09T05:24:03;97988.59;;;8.59;82.62
43741;BME280;29352;48.708;9.290;2023-05-09T05:26:28;97984.19;;;8.99;79.76
43741;BME280;29352;48.708;9.290;2023-05-09T05:28:54;97979.25;;;8.83;80.03
43741;BME280;29352;48.708;9.290;2023-05-09T05:31:21;97983.84;;;8.41;81.49
43741;BME280;29352;48.708;9.290;2023-05-09T05:33:46;97973.09;;;8.76;79.37
43741;BME280;29352;48.708;9.290;2023-05-09T05:36:12;97975.13;;;8.61;80.63
43741;BME280;29352;48.708;9.290;2023-05-09T05:38:37;97974.69;;;8.57;80.00
43741;BME280;29352;48.708;9.290;2023-05-09T05:41:03;97973.31;;;8.94;79.52
43741;BME280;29352;48.708;9.290;2023-05-09T05:43:28;97969.44;;;9.30;78.04
43741;BME280;29352;48.708;9.290;2023-05-09T05:45:54;97976.41;;;9.18;78.18
43741;BME280;29352;48.708;9.290;2023-05-09T05:48:20;97973.22;;;7.87;84.09
43741;BME280;29352;48.708;9.290;2023-05-09T05:50:45;97977.00;;;8.05;81.03
43741;BME280;29352;48.708;9.290;2023-05-09T05:53:11;97964.25;;;7.88;80.80
43741;BME280;29352;48.708;9.290;2023-05-09T05:55:36;97953.19;;;7.84;83.02
43741;BME280;29352;48.708;9.290;2023-05-09T05:58:01;97963.06;;;6.41;89.83
43741;BME280;29352;48.708;9.290;2023-05-09T06:00:27;97964.50;;;5.86;91.46
43741;BME280;29352;48.708;9.290;2023-05-09T06:02:52;97965.00;;;6.11;90.42
43741;BME280;29352;48.708;9.290;2023-05-09T06:05:18;97969.56;;;6.03;90.22
43741;BME280;29352;48.708;9.290;2023-05-09T06:07:43;97958.84;;;6.69;88.98
43741;BME280;29352;48.708;9.290;2023-05-09T06:10:09;97965.72;;;6.41;91.48
43741;BME280;29352;48.708;9.290;2023-05-09T06:12:35;97955.75;;;7.36;87.62
43741;BME280;29352;48.708;9.290;2023-05-09T06:15:01;97952.78;;;7.80;84.70
43741;BME280;29352;48.708;9.290;2023-05-09T06:17:29;97951.09;;;8.27;83.42
43741;BME280;29352;48.708;9.290;2023-05-09T06:19:54;97951.69;;;7.75;84.30
43741;BME280;29352;48.708;9.290;2023-05-09T06:22:20;97953.28;;;7.69;85.02
43741;BME280;29352;48.708;9.290;2023-05-09T06:24:45;97941.78;;;9.11;79.62
43741;BME280;29352;48.708;9.290;2023-05-09T06:27:11;97938.09;;;10.04;75.00
43741;BME280;29352;48.708;9.290;2023-05-09T06:29:36;97940.06;;;10.22;76.19
43741;BME280;29352;48.708;9.290;2023-05-09T06:32:02;97931.25;;;12.26;69.31
43741;BME280;29352;48.708;9.290;2023-05-09T06:34:27;97927.41;;;12.52;68.57
43741;BME280;29352;48.708;9.290;2023-05-09T06:36:52;97920.28;;;14.39;65.40
43741;BME280;29352;48.708;9.290;2023-05-09T06:39:18;97925.47;;;14.58;62.96
43741;BME280;29352;48.708;9.290;2023-05-09T06:41:43;97920.91;;;14.30;63.62
43741;BME280;29352;48.708;9.290;2023-05-09T06:44:09;97917.34;;;13.60;64.37
43741;BME280;29352;48.708;9.290;2023-05-09T06:46:34;97909.34;;;16.30;57.53
43741;BME280;29352;48.708;9.290;2023-05-09T06:49:00;97905.38;;;18.65;53.39
43741;BME280;29352;48.708;9.290;2023-05-09T06:51:30;97913.16;;;17.25;55.17
43741;BME280;29352;48.708;9.290;2023-05-09T06:53:56;97917.28;;;14.81;60.26
43741;BME280;29352;48.708;9.290;2023-05-09T06:56:21;97912.94;;;14.47;61.86
43741;BME280;29352;48.708;9.290;2023-05-09T06:58:49;97906.00;;;15.35;59.03
43741;BME280;29352;48.708;9.290;2023-05-09T07:01:14;97913.13;;;12.28;65.44
43741;BME280;29352;48.708;9.290;2023-05-09T07:03:40;97910.81;;;11.65;68.38
43741;BME280;29352;48.708;9.290;2023-05-09T07:08:31;97898.28;;;14.54;62.07
43741;BME280;29352;48.708;9.290;2023-05-09T07:10:57;97898.44;;;13.90;62.62
43741;BME280;29352;48.708;9.290;2023-05-09T07:13:22;97893.88;;;13.91;63.32
43741;BME280;29352;48.708;9.290;2023-05-09T07:15:47;97893.91;;;14.36;62.08
43741;BME280;29352;48.708;9.290;2023-05-09T07:18:13;97882.28;;;14.02;62.04
43741;BME280;29352;48.708;9.290;2023-05-09T07:20:38;97886.78;;;14.13;62.73
43741;BME280;29352;48.708;9.290;2023-05-09T07:23:04;97886.31;;;13.76;62.34
43741;BME280;29352;48.708;9.290;2023-05-09T07:25:30;97868.38;;;15.79;58.26
43741;BME280;29352;48.708;9.290;2023-05-09T07:27:55;97876.88;;;16.15;57.48
43741;BME280;29352;48.708;9.290;2023-05-09T07:30:21;97861.66;;;16.52;57.02
43741;BME280;29352;48.708;9.290;2023-05-09T07:32:47;97859.72;;;17.65;55.46
43741;BME280;29352;48.708;9.290;2023-05-09T07:35:12;97850.44;;;17.40;56.36
43741;BME280;29352;48.708;9.290;2023-05-09T07:37:37;97838.19;;;19.49;51.08
43741;BME280;29352;48.708;9.290;2023-05-09T07:40:03;97841.03;;;18.72;51.89
43741;BME280;29352;48.708;9.290;2023-05-09T07:42:30;97836.13;;;18.28;53.10
43741;BME280;29352;48.708;9.290;2023-05-09T07:44:56;97830.44;;;18.25;53.51
43741;BME280;29352;48.708;9.290;2023-05-09T07:47:23;97823.91;;;19.33;51.33
43741;BME280;29352;48.708;9.290;2023-05-09T07:49:49;97817.75;;;19.12;51.81
43741;BME280;29352;48.708;9.290;2023-05-09T07:52:15;97828.25;;;16.86;54.64
43741;BME280;29352;48.708;9.290;2023-05-09T07:54:42;97818.28;;;16.91;55.46
43741;BME280;29352;48.708;9.290;2023-05-09T07:57:07;97810.13;;;17.81;55.09
43741;BME280;29352;48.708;9.290;2023-05-09T07:59:33;97804.25;;;18.10;53.69
43741;BME280;29352;48.708;9.290;2023-05-09T08:01:58;97796.16;;;18.51;53.28
43741;BME280;29352;48.708;9.290;2023-05-09T08:04:24;97804.03;;;16.53;56.69
43741;BME280;29352;48.708;9.290;2023-05-09T08:06:50;97805.63;;;17.39;54.29
43741;BME280;29352;48.708;9.290;2023-05-09T08:09:15;97800.78;;;16.51;57.29
43741;BME280;29352;48.708;9.290;2023-05-09T08:11:41;97788.97;;;17.05;55.32
43741;BME280;29352;48.708;9.290;2023-05-09T08:14:06;97786.28;;;17.58;55.56
43741;BME280;29352;48.708;9.290;2023-05-09T08:16:32;97779.91;;;17.89;54.97
43741;BME280;29352;48.708;9.290;2023-05-09T08:18:57;97778.88;;;18.57;53.52
43741;BME280;29352;48.708;9.290;2023-05-09T08:21:22;97780.50;;;18.37;54.09
43741;BME280;29352;48.708;9.290;2023-05-09T08:23:48;97768.88;;;17.18;55.82
43741;BME280;29352;48.708;9.290;2023-05-09T08:26:13;97769.94;;;18.15;54.09
43741;BME280;29352;48.708;9.290;2023-05-09T08:28:39;97763.06;;;17.52;54.12
43741;BME280;29352;48.708;9.290;2023-05-09T08:31:04;97757.84;;;16.40;56.88
43741;BME280;29352;48.708;9.290;2023-05-09T08:33:30;97760.91;;;15.89;58.63
43741;BME280;29352;48.708;9.290;2023-05-09T08:35:55;97759.59;;;15.92;57.08
43741;BME280;29352;48.708;9.290;2023-05-09T08:38:21;97755.94;;;14.04;62.56
43741;BME280;29352;48.708;9.290;2023-05-09T08:40:47;97745.03;;;15.88;58.82
43741;BME280;29352;48.708;9.290;2023-05-09T08:43:15;97739.34;;;15.62;59.67
43741;BME280;29352;48.708;9.290;2023-05-09T08:45:59;97735.91;;;15.40;58.45
43741;BME280;29352;48.708;9.290;2023-05-09T08:48:34;97734.94;;;14.85;59.78
43741;BME280;29352;48.708;9.290;2023-05-09T08:51:04;97725.53;;;16.40;56.97
43741;BME280;29352;48.708;9.290;2023-05-09T08:53:31;97713.28;;;16.59;56.12
43741;BME280;29352;48.708;9.290;2023-05-09T08:55:59;97718.72;;;15.68;58.27
43741;BME280;29352;48.708;9.290;2023-05-09T08:58:28;97725.78;;;15.74;58.14
43741;BME280;29352;48.708;9.290;2023-05-09T09:00:55;97722.78;;;16.72;57.08
43741;BME280;29352;48.708;9.290;2023-05-09T09:03:22;97723.50;;;16.20;57.48
43741;BME280;29352;48.708;9.290;2023-05-09T09:05:50;97720.06;;;16.67;56.16
43741;BME280;29352;48.708;9.290;2023-05-09T09:08:18;97724.56;;;17.03;56.44
43741;BME280;29352;48.708;9.290;2023-05-09T09:10:46;97728.13;;;15.97;58.40
43741;BME280;29352;48.708;9.290;2023-05-09T09:13:14;97720.66;;;16.37;56.86
43741;BME280;29352;48.708;9.290;2023-05-09T09:15:43;97727.19;;;15.10;59.15
43741;BME280;29352;48.708;9.290;2023-05-09T09:18:15;97712.22;;;16.23;56.68
43741;BME280;29352;48.708;9.290;2023-05-09T09:20:51;97718.06;;;14.51;60.43
43741;BME280;29352;48.708;9.290;2023-05-09T09:23:24;97702.56;;;15.41;58.12
43741;BME280;29352;48.708;9.290;2023-05-09T09:26:01;97705.41;;;15.83;58.38
43741;BME280;29352;48.708;9.290;2023-05-09T09:28:31;97699.69;;;16.06;57.05
43741;BME280;29352;48.708;9.290;2023-05-09T09:30:57;97696.59;;;15.60;58.89
43741;BME280;29352;48.708;9.290;2023-05-09T09:33:24;97700.00;;;16.95;55.09
43741;BME280;29352;48.708;9.290;2023-05-09T09:35:53;97701.63;;;13.96;61.35
43741;BME280;29352;48.708;9.290;2023-05-09T09:38:21;97692.47;;;14.43;61.47
43741;BME280;29352;48.708;9.290;2023-05-09T09:43:17;97674.38;;;16.40;58.35
43741;BME280;29352;48.708;9.290;2023-05-09T09:45:48;97664.03;;;16.69;56.17
43741;BME280;29352;48.708;9.290;2023-05-09T09:48:15;97670.22;;;15.35;58.70
43741;BME280;29352;48.708;9.290;2023-05-09T09:50:40;97666.00;;;15.99;58.14
43741;BME280;29352;48.708;9.290;2023-05-09T09:53:06;97670.66;;;15.22;58.50
43741;BME280;29352;48.708;9.290;2023-05-09T09:55:33;97667.25;;;15.10;59.48
43741;BME280;29352;48.708;9.290;2023-05-09T09:57:59;97664.91;;;13.80;62.66
43741;BME280;29352;48.708;9.290;2023-05-09T10:00:26;97655.97;;;14.64;60.36
43741;BME280;29352;48.708;9.290;2023-05-09T10:02:54;97644.03;;;14.99;59.38
43741;BME280;29352;48.708;9.290;2023-05-09T10:05:26;97645.09;;;14.20;60.83
43741;BME280;29352;48.708;9.290;2023-05-09T10:07:57;97643.66;;;14.46;60.91
43741;BME280;29352;48.708;9.290;2023-05-09T10:10:32;97639.97;;;13.51;63.15
43741;BME280;29352;48.708;9.290;2023-05-09T10:13:02;97651.94;;;13.03;65.53
43741;BME280;29352;48.708;9.290;2023-05-09T10:15:31;97641.28;;;13.65;65.17
43741;BME280;29352;48.708;9.290;2023-05-09T10:17:58;97642.06;;;12.92;67.24
43741;BME280;29352;48.708;9.290;2023-05-09T10:20:27;97633.38;;;13.13;66.79
43741;BME280;29352;48.708;9.290;2023-05-09T10:23:00;97630.03;;;13.97;65.27
43741;BME280;29352;48.708;9.290;2023-05-09T10:28:22;97609.69;;;16.82;58.19
43741;BME280;29352;48.708;9.290;2023-05-09T10:31:00;97607.69;;;16.57;58.42
43741;BME280;29352;48.708;9.290;2023-05-09T10:33:39;97604.22;;;16.62;59.58
43741;BME280;29352;48.708;9.290;2023-05-09T10:36:11;97594.16;;;18.12;55.80
43741;BME280;29352;48.708;9.290;2023-05-09T10:38:40;97588.59;;;18.73;54.41
43741;BME280;29352;48.708;9.290;2023-05-09T10:41:07;97587.31;;;18.55;55.34
43741;BME280;29352;48.708;9.290;2023-05-09T10:43:34;97584.94;;;18.38;54.02
43741;BME280;29352;48.708;9.290;2023-05-09T10:46:02;97587.69;;;17.16;56.86
43741;BME280;29352;48.708;9.290;2023-05-09T10:48:31;97584.47;;;16.03;59.23
43741;BME280;29352;48.708;9.290;2023-05-09T10:50:59;97589.03;;;15.33;61.60
43741;BME280;29352;48.708;9.290;2023-05-09T10:53:46;97585.78;;;16.43;57.99
43741;BME280;29352;48.708;9.290;2023-05-09T10:56:28;97579.47;;;16.80;58.10
43741;BME280;29352;48.708;9.290;2023-05-09T10:58:59;97570.75;;;16.47;59.29
43741;BME280;29352;48.708;9.290;2023-05-09T11:01:30;97563.28;;;16.70;58.37
43741;BME280;29352;48.708;9.290;2023-05-09T11:03:59;97559.53;;;16.71;57.72
43741;BME280;29352;48.708;9.290;2023-05-09T11:22:20;97517.53;;;15.32;60.80
43741;BME280;29352;48.708;9.290;2023-05-09T11:27:27;97509.78;;;15.09;61.34
43741;BME280;29352;48.708;9.290;2023-05-09T11:29:58;97506.91;;;15.90;59.61
43741;BME280;29352;48.708;9.290;2023-05-09T11:32:30;97507.03;;;16.16;58.66
43741;BME280;29352;48.708;9.290;2023-05-09T11:35:15;97501.81;;;14.21;62.55
43741;BME280;29352;48.708;9.290;2023-05-09T11:37:51;97488.41;;;15.24;62.93
43741;BME280;29352;48.708;9.290;2023-05-09T11:40:20;97484.06;;;15.50;59.92
43741;BME280;29352;48.708;9.290;2023-05-09T11:42:49;97480.13;;;16.16;59.54
43741;BME280;29352;48.708;9.290;2023-05-09T11:45:20;97485.31;;;15.10;62.68
43741;BME280;29352;48.708;9.290;2023-05-09T11:47:49;97476.41;;;15.37;60.77
43741;BME280;29352;48.708;9.290;2023-05-09T11:50:17;97477.50;;;14.77;62.46
43741;BME280;29352;48.708;9.290;2023-05-09T11:52:44;97474.97;;;14.92;63.10
43741;BME280;29352;48.708;9.290;2023-05-09T11:55:16;97476.44;;;14.29;62.98
43741;BME280;29352;48.708;9.290;2023-05-09T11:57:45;97467.56;;;15.09;61.48
43741;BME280;29352;48.708;9.290;2023-05-09T12:00:21;97463.19;;;15.73;61.81
43741;BME280;29352;48.708;9.290;2023-05-09T12:02:49;97462.28;;;14.87;60.66
43741;BME280;29352;48.708;9.290;2023-05-09T12:05:18;97455.47;;;13.82;62.76
43741;BME280;29352;48.708;9.290;2023-05-09T12:07:46;97444.41;;;15.78;59.28
43741;BME280;29352;48.708;9.290;2023-05-09T12:10:14;97450.44;;;15.95;57.49
43741;BME280;29352;48.708;9.290;2023-05-09T12:12:46;97450.41;;;15.48;60.79
43741;BME280;29352;48.708;9.290;2023-05-09T12:15:13;97447.88;;;14.66;62.20
43741;BME280;29352;48.708;9.290;2023-05-09T12:17:40;97438.56;;;14.52;60.60
43741;BME280;29352;48.708;9.290;2023-05-09T12:20:08;97435.94;;;16.12;58.76
43741;BME280;29352;48.708;9.290;2023-05-09T12:22:35;97430.09;;;16.30;57.70
43741;BME280;29352;48.708;9.290;2023-05-09T12:25:06;97422.13;;;16.86;56.59
43741;BME280;29352;48.708;9.290;2023-05-09T12:27:35;97415.09;;;16.70;57.84
43741;BME280;29352;48.708;9.290;2023-05-09T12:30:06;97413.97;;;15.67;58.56
43741;BME280;29352;48.708;9.290;2023-05-09T12:32:35;97415.41;;;15.90;59.00
43741;BME280;29352;48.708;9.290;2023-05-09T12:35:03;97406.13;;;15.66;59.30
43741;BME280;29352;48.708;9.290;2023-05-09T12:37:30;97402.63;;;15.18;59.15
43741;BME280;29352;48.708;9.290;2023-05-09T12:40:18;97391.88;;;15.65;57.91
43741;BME280;29352;48.708;9.290;2023-05-09T12:42:44;97395.88;;;15.57;59.45
43741;BME280;29352;48.708;9.290;2023-05-09T12:45:10;97391.78;;;14.21;60.76
43741;BME280;29352;48.708;9.290;2023-05-09T12:47:36;97385.41;;;14.81;59.73
43741;BME280;29352;48.708;9.290;2023-05-09T12:50:10;97370.25;;;15.02;59.06
43741;BME280;29352;48.708;9.290;2023-05-09T12:52:41;97371.13;;;15.55;58.33
43741;BME280;29352;48.708;9.290;2023-05-09T12:55:12;97367.94;;;14.79;60.71
43741;BME280;29352;48.708;9.290;2023-05-09T12:57:39;97364.22;;;15.75;58.52
43741;BME280;29352;48.708;9.290;2023-05-09T13:00:07;97370.66;;;15.69;57.38
43741;BME280;29352;48.708;9.290;2023-05-09T13:02:36;97364.31;;;15.90;57.99
43741;BME280;29352;48.708;9.290;2023-05-09T13:05:10;97351.78;;;14.14;60.07
43741;BME280;29352;48.708;9.290;2023-05-09T13:07:45;97353.69;;;14.19;59.96
43741;BME280;29352;48.708;9.290;2023-05-09T13:10:23;97347.84;;;14.49;59.16
43741;BME280;29352;48.708;9.290;2023-05-09T13:12:52;97344.22;;;15.55;59.14
43741;BME280;29352;48.708;9.290;2023-05-09T13:15:20;97333.75;;;15.54;57.70
43741;BME280;29352;48.708;9.290;2023-05-09T13:17:48;97339.38;;;15.52;57.49
43741;BME280;29352;48.708;9.290;2023-05-09T13:20:15;97332.81;;;14.26;58.45
43741;BME280;29352;48.708;9.290;2023-05-09T13:22:41;97321.28;;;14.53;58.71
43741;BME280;29352;48.708;9.290;2023-05-09T13:25:09;97323.69;;;14.00;59.16
43741;BME280;29352;48.708;9.290;2023-05-09T13:27:36;97318.19;;;15.08;56.80
43741;BME280;29352;48.708;9.290;2023-05-09T13:30:03;97319.59;;;14.79;57.72
43741;BME280;29352;48.708;9.290;2023-05-09T13:32:31;97315.00;;;15.11;56.92
43741;BME280;29352;48.708;9.290;2023-05-09T13:34:57;97298.16;;;16.15;55.07
43741;BME280;29352;48.708;9.290;2023-05-09T13:37:23;97295.16;;;15.85;55.10
43741;BME280;29352;48.708;9.290;2023-05-09T13:39:48;97295.34;;;15.69;56.08
43741;BME280;29352;48.708;9.290;2023-05-09T13:42:13;97293.06;;;16.39;56.22
43741;BME280;29352;48.708;9.290;2023-05-09T13:44:39;97288.22;;;16.05;57.04
43741;BME280;29352;48.708;9.290;2023-05-09T13:47:05;97282.03;;;14.89;59.11
43741;BME280;29352;48.708;9.290;2023-05-09T13:49:32;97284.56;;;15.06;58.48
43741;BME280;29352;48.708;9.290;2023-05-09T13:51:59;97286.38;;;13.71;60.50